CheckWX is a tool to help pilots better visualize weather data.  It is not intended as a substitute for an official pre-flight weather briefing.

06:46:18 UTC

KGEY METAR
South Big Horn County Airport
Greybull, Wyoming, USA
Current

53 mins ago

KGEY 210553Z AUTO 29010KT 10SM BKN055 OVC070 08/03 A2978 RMK AO2 SLP083 T00830033 10111 20083 58001
Observed
May-21 @ 05:53 UTC
Wind
  • 290° at 10 KTS
Visibility
10 SM
Flight Rules
VFR
Cloud Levels
  • Broken at 5,500' AGL
  • Overcast at 7,000' AGL
Temperature
C / 46°F
Dewpoint
C / 37°F
Humidity
71%
Altimeter
29.78" Hg
Pressure
1008.42 hPa
Previous

2 hours ago

KGEY 210453Z AUTO 33011KT 10SM FEW050 OVC070 09/03 A2977 RMK AO2 SLP081 T00890033
Observed
May-21 @ 04:53 UTC
Wind
  • 330° at 11 KTS
Visibility
10 SM
Flight Rules
VFR
Cloud Levels
  • Few at 5,000' AGL
  • Overcast at 7,000' AGL
Temperature
C / 48°F
Dewpoint
C / 37°F
Humidity
66%
Altimeter
29.77" Hg
Pressure
1008.12 hPa
Previous

3 hours ago

KGEY 210353Z AUTO 31010KT 10SM OVC075 08/03 A2978 RMK AO2 SLP085 T00830033
Observed
May-21 @ 03:53 UTC
Wind
  • 310° at 10 KTS
Visibility
10 SM
Flight Rules
VFR
Cloud Levels
  • Overcast at 7,500' AGL
Temperature
C / 46°F
Dewpoint
C / 37°F
Humidity
71%
Altimeter
29.78" Hg
Pressure
1008.42 hPa